sensor_id;sensor_type;location;lat;lon;timestamp;temperature;humidity
15105;DHT22;7653;48.994;9.212;2023-06-22T00:01:56;21.40;77.20
15105;DHT22;7653;48.994;9.212;2023-06-22T00:04:22;21.40;75.50
15105;DHT22;7653;48.994;9.212;2023-06-22T00:06:47;21.20;76.80
15105;DHT22;7653;48.994;9.212;2023-06-22T00:09:13;21.20;76.40
15105;DHT22;7653;48.994;9.212;2023-06-22T00:11:39;21.10;77.60
15105;DHT22;7653;48.994;9.212;2023-06-22T00:14:05;21.10;78.50
15105;DHT22;7653;48.994;9.212;2023-06-22T00:16:34;21.00;79.90
15105;DHT22;7653;48.994;9.212;2023-06-22T00:19:00;20.80;79.70
15105;DHT22;7653;48.994;9.212;2023-06-22T00:21:27;20.60;82.90
15105;DHT22;7653;48.994;9.212;2023-06-22T00:23:53;20.50;86.30
15105;DHT22;7653;48.994;9.212;2023-06-22T00:26:19;20.50;86.50
15105;DHT22;7653;48.994;9.212;2023-06-22T00:28:49;20.60;85.20
15105;DHT22;7653;48.994;9.212;2023-06-22T00:31:14;20.70;84.40
15105;DHT22;7653;48.994;9.212;2023-06-22T00:33:40;20.60;84.30
15105;DHT22;7653;48.994;9.212;2023-06-22T00:36:06;20.40;84.50
15105;DHT22;7653;48.994;9.212;2023-06-22T00:38:33;20.30;86.70
15105;DHT22;7653;48.994;9.212;2023-06-22T00:40:59;20.30;87.50
15105;DHT22;7653;48.994;9.212;2023-06-22T00:43:25;20.40;88.80
15105;DHT22;7653;48.994;9.212;2023-06-22T00:45:50;20.30;86.30
15105;DHT22;7653;48.994;9.212;2023-06-22T00:48:16;20.10;88.20
15105;DHT22;7653;48.994;9.212;2023-06-22T00:50:48;20.10;88.40
15105;DHT22;7653;48.994;9.212;2023-06-22T00:53:15;20.10;89.50
15105;DHT22;7653;48.994;9.212;2023-06-22T00:55:43;20.10;88.90
15105;DHT22;7653;48.994;9.212;2023-06-22T00:58:11;20.00;89.20
15105;DHT22;7653;48.994;9.212;2023-06-22T01:00:38;19.90;89.70
15105;DHT22;7653;48.994;9.212;2023-06-22T01:03:04;19.80;91.10
15105;DHT22;7653;48.994;9.212;2023-06-22T01:05:34;20.00;90.40
15105;DHT22;7653;48.994;9.212;2023-06-22T01:11:16;19.60;92.50
15105;DHT22;7653;48.994;9.212;2023-06-22T01:16:26;20.10;92.70
15105;DHT22;7653;48.994;9.212;2023-06-22T01:18:55;20.10;92.30
15105;DHT22;7653;48.994;9.212;2023-06-22T01:21:24;20.40;91.50
15105;DHT22;7653;48.994;9.212;2023-06-22T01:24:15;20.50;90.80
15105;DHT22;7653;48.994;9.212;2023-06-22T01:26:42;20.50;90.00
15105;DHT22;7653;48.994;9.212;2023-06-22T01:29:11;20.30;90.50
15105;DHT22;7653;48.994;9.212;2023-06-22T01:31:39;20.40;88.70
15105;DHT22;7653;48.994;9.212;2023-06-22T01:34:08;20.50;87.60
15105;DHT22;7653;48.994;9.212;2023-06-22T01:36:35;20.50;87.50
15105;DHT22;7653;48.994;9.212;2023-06-22T01:39:02;20.50;86.60
15105;DHT22;7653;48.994;9.212;2023-06-22T01:41:33;20.40;86.70
15105;DHT22;7653;48.994;9.212;2023-06-22T01:43:59;20.30;87.20
15105;DHT22;7653;48.994;9.212;2023-06-22T01:46:26;20.10;88.50
15105;DHT22;7653;48.994;9.212;2023-06-22T01:48:52;20.00;90.40
15105;DHT22;7653;48.994;9.212;2023-06-22T01:51:18;19.90;91.10
15105;DHT22;7653;48.994;9.212;2023-06-22T01:53:44;20.00;90.40
15105;DHT22;7653;48.994;9.212;2023-06-22T01:56:10;20.10;90.00
15105;DHT22;7653;48.994;9.212;2023-06-22T01:58:39;20.10;90.20
15105;DHT22;7653;48.994;9.212;2023-06-22T02:01:11;20.10;88.40
15105;DHT22;7653;48.994;9.212;2023-06-22T02:03:44;20.20;88.20
15105;DHT22;7653;48.994;9.212;2023-06-22T02:06:24;20.30;86.60
15105;DHT22;7653;48.994;9.212;2023-06-22T02:08:59;20.20;86.20
15105;DHT22;7653;48.994;9.212;2023-06-22T02:11:26;20.20;86.20
15105;DHT22;7653;48.994;9.212;2023-06-22T02:13:53;20.20;86.50
15105;DHT22;7653;48.994;9.212;2023-06-22T02:16:20;20.10;88.00
15105;DHT22;7653;48.994;9.212;2023-06-22T02:18:50;20.10;87.20
15105;DHT22;7653;48.994;9.212;2023-06-22T02:21:17;20.10;86.90
15105;DHT22;7653;48.994;9.212;2023-06-22T02:23:43;19.90;87.90
15105;DHT22;7653;48.994;9.212;2023-06-22T02:26:08;20.10;87.60
15105;DHT22;7653;48.994;9.212;2023-06-22T02:28:34;20.10;84.70
15105;DHT22;7653;48.994;9.212;2023-06-22T02:31:00;20.20;83.20
15105;DHT22;7653;48.994;9.212;2023-06-22T02:33:25;20.00;83.40
15105;DHT22;7653;48.994;9.212;2023-06-22T02:35:51;19.80;87.00
15105;DHT22;7653;48.994;9.212;2023-06-22T02:38:16;19.90;87.10
15105;DHT22;7653;48.994;9.212;2023-06-22T02:40:43;20.00;85.70
15105;DHT22;7653;48.994;9.212;2023-06-22T02:43:08;20.00;85.40
15105;DHT22;7653;48.994;9.212;2023-06-22T02:45:34;20.00;83.90
15105;DHT22;7653;48.994;9.212;2023-06-22T02:48:00;20.00;84.10
15105;DHT22;7653;48.994;9.212;2023-06-22T02:50:25;20.00;83.70
15105;DHT22;7653;48.994;9.212;2023-06-22T02:52:51;20.10;83.80
15105;DHT22;7653;48.994;9.212;2023-06-22T02:55:16;20.10;83.60
15105;DHT22;7653;48.994;9.212;2023-06-22T02:57:42;20.10;83.40
15105;DHT22;7653;48.994;9.212;2023-06-22T03:00:10;20.10;83.30
15105;DHT22;7653;48.994;9.212;2023-06-22T03:02:44;20.00;84.50
15105;DHT22;7653;48.994;9.212;2023-06-22T03:05:10;20.00;85.30
15105;DHT22;7653;48.994;9.212;2023-06-22T03:07:42;20.00;85.00
15105;DHT22;7653;48.994;9.212;2023-06-22T03:10:09;20.00;85.50
15105;DHT22;7653;48.994;9.212;2023-06-22T03:12:35;20.00;84.90
15105;DHT22;7653;48.994;9.212;2023-06-22T03:15:01;20.00;84.90
15105;DHT22;7653;48.994;9.212;2023-06-22T03:17:27;20.00;85.10
15105;DHT22;7653;48.994;9.212;2023-06-22T03:19:52;20.00;85.50
15105;DHT22;7653;48.994;9.212;2023-06-22T03:22:18;19.90;86.10
15105;DHT22;7653;48.994;9.212;2023-06-22T03:24:43;19.80;87.20
15105;DHT22;7653;48.994;9.212;2023-06-22T03:27:09;19.80;88.20
15105;DHT22;7653;48.994;9.212;2023-06-22T03:29:35;19.90;87.50
15105;DHT22;7653;48.994;9.212;2023-06-22T03:32:00;19.90;86.70
15105;DHT22;7653;48.994;9.212;2023-06-22T03:34:26;20.00;87.00
15105;DHT22;7653;48.994;9.212;2023-06-22T03:36:52;20.00;86.50
15105;DHT22;7653;48.994;9.212;2023-06-22T03:39:17;20.00;86.40
15105;DHT22;7653;48.994;9.212;2023-06-22T03:41:43;19.90;87.30
15105;DHT22;7653;48.994;9.212;2023-06-22T03:44:08;19.90;87.50
15105;DHT22;7653;48.994;9.212;2023-06-22T03:46:37;19.70;88.10
15105;DHT22;7653;48.994;9.212;2023-06-22T03:49:03;19.70;88.60
15105;DHT22;7653;48.994;9.212;2023-06-22T03:51:29;19.80;89.20
15105;DHT22;7653;48.994;9.212;2023-06-22T03:53:55;19.80;89.10
15105;DHT22;7653;48.994;9.212;2023-06-22T03:56:20;19.60;89.00
15105;DHT22;7653;48.994;9.212;2023-06-22T03:58:46;19.50;90.60
15105;DHT22;7653;48.994;9.212;2023-06-22T04:01:12;19.30;92.20
15105;DHT22;7653;48.994;9.212;2023-06-22T04:03:38;19.40;91.80
15105;DHT22;7653;48.994;9.212;2023-06-22T04:06:04;19.50;91.80
15105;DHT22;7653;48.994;9.212;2023-06-22T04:08:30;19.50;92.30
15105;DHT22;7653;48.994;9.212;2023-06-22T04:10:55;19.50;91.60
15105;DHT22;7653;48.994;9.212;2023-06-22T04:13:21;19.60;91.50
15105;DHT22;7653;48.994;9.212;2023-06-22T04:15:47;19.60;91.30
15105;DHT22;7653;48.994;9.212;2023-06-22T04:18:12;19.70;91.70
15105;DHT22;7653;48.994;9.212;2023-06-22T04:20:39;19.90;91.30
15105;DHT22;7653;48.994;9.212;2023-06-22T04:23:04;19.90;90.70
15105;DHT22;7653;48.994;9.212;2023-06-22T04:25:30;19.90;90.60
15105;DHT22;7653;48.994;9.212;2023-06-22T04:27:56;20.00;90.60
15105;DHT22;7653;48.994;9.212;2023-06-22T04:30:21;20.10;89.60
15105;DHT22;7653;48.994;9.212;2023-06-22T04:32:47;20.10;88.40
15105;DHT22;7653;48.994;9.212;2023-06-22T04:35:26;20.10;88.40
15105;DHT22;7653;48.994;9.212;2023-06-22T04:37:53;20.30;88.60
15105;DHT22;7653;48.994;9.212;2023-06-22T04:40:23;20.40;88.70
15105;DHT22;7653;48.994;9.212;2023-06-22T04:42:49;20.50;88.30
15105;DHT22;7653;48.994;9.212;2023-06-22T04:45:19;20.60;87.70
15105;DHT22;7653;48.994;9.212;2023-06-22T04:47:45;20.70;89.00
15105;DHT22;7653;48.994;9.212;2023-06-22T04:50:14;20.70;88.00
15105;DHT22;7653;48.994;9.212;2023-06-22T04:52:40;20.70;83.70
15105;DHT22;7653;48.994;9.212;2023-06-22T04:55:06;20.70;86.60
15105;DHT22;7653;48.994;9.212;2023-06-22T04:57:32;20.80;86.70
15105;DHT22;7653;48.994;9.212;2023-06-22T05:00:02;20.80;82.10
15105;DHT22;7653;48.994;9.212;2023-06-22T05:02:38;20.70;81.20
15105;DHT22;7653;48.994;9.212;2023-06-22T05:05:04;20.60;84.60
15105;DHT22;7653;48.994;9.212;2023-06-22T05:07:36;20.80;84.40
15105;DHT22;7653;48.994;9.212;2023-06-22T05:10:05;20.90;80.50
15105;DHT22;7653;48.994;9.212;2023-06-22T05:12:31;21.00;78.70
15105;DHT22;7653;48.994;9.212;2023-06-22T05:14:57;20.90;79.70
15105;DHT22;7653;48.994;9.212;2023-06-22T05:17:23;21.20;78.00
15105;DHT22;7653;48.994;9.212;2023-06-22T05:19:49;21.50;72.30
15105;DHT22;7653;48.994;9.212;2023-06-22T05:22:15;21.70;68.90
15105;DHT22;7653;48.994;9.212;2023-06-22T05:24:42;21.80;66.80
15105;DHT22;7653;48.994;9.212;2023-06-22T05:27:12;21.90;67.70
15105;DHT22;7653;48.994;9.212;2023-06-22T05:29:39;22.00;67.00
15105;DHT22;7653;48.994;9.212;2023-06-22T05:32:05;22.10;65.40
15105;DHT22;7653;48.994;9.212;2023-06-22T05:34:31;22.30;63.70
15105;DHT22;7653;48.994;9.212;2023-06-22T05:36:56;22.40;61.60
15105;DHT22;7653;48.994;9.212;2023-06-22T05:39:24;22.30;64.70
15105;DHT22;7653;48.994;9.212;2023-06-22T05:41:51;22.40;61.60
15105;DHT22;7653;48.994;9.212;2023-06-22T05:44:16;22.50;62.30
15105;DHT22;7653;48.994;9.212;2023-06-22T05:46:43;22.30;63.20
15105;DHT22;7653;48.994;9.212;2023-06-22T05:49:11;22.40;65.70
15105;DHT22;7653;48.994;9.212;2023-06-22T05:51:37;22.50;63.80
15105;DHT22;7653;48.994;9.212;2023-06-22T05:54:02;22.80;62.30
15105;DHT22;7653;48.994;9.212;2023-06-22T05:56:28;23.00;59.00
15105;DHT22;7653;48.994;9.212;2023-06-22T05:58:54;23.10;58.40
15105;DHT22;7653;48.994;9.212;2023-06-22T06:01:19;23.10;56.80
15105;DHT22;7653;48.994;9.212;2023-06-22T06:03:45;23.20;55.90
15105;DHT22;7653;48.994;9.212;2023-06-22T06:06:11;23.30;55.30
15105;DHT22;7653;48.994;9.212;2023-06-22T06:08:38;23.40;55.50
15105;DHT22;7653;48.994;9.212;2023-06-22T06:11:03;23.50;54.60
15105;DHT22;7653;48.994;9.212;2023-06-22T06:13:29;23.50;53.60
15105;DHT22;7653;48.994;9.212;2023-06-22T06:15:55;23.70;54.50
15105;DHT22;7653;48.994;9.212;2023-06-22T06:18:21;23.60;52.50
15105;DHT22;7653;48.994;9.212;2023-06-22T06:20:47;23.80;53.10
15105;DHT22;7653;48.994;9.212;2023-06-22T06:23:12;23.90;50.40
15105;DHT22;7653;48.994;9.212;2023-06-22T06:25:38;23.90;50.80
15105;DHT22;7653;48.994;9.212;2023-06-22T06:28:04;23.90;50.60
15105;DHT22;7653;48.994;9.212;2023-06-22T06:30:30;23.70;50.00
15105;DHT22;7653;48.994;9.212;2023-06-22T06:32:56;23.90;50.30
15105;DHT22;7653;48.994;9.212;2023-06-22T06:35:22;23.90;49.20
15105;DHT22;7653;48.994;9.212;2023-06-22T06:37:49;24.10;49.10
15105;DHT22;7653;48.994;9.212;2023-06-22T06:40:16;24.20;48.60
15105;DHT22;7653;48.994;9.212;2023-06-22T06:42:44;24.30;48.50
15105;DHT22;7653;48.994;9.212;2023-06-22T06:45:21;24.20;45.30
15105;DHT22;7653;48.994;9.212;2023-06-22T06:47:48;24.30;48.00
15105;DHT22;7653;48.994;9.212;2023-06-22T06:50:14;24.60;46.60
15105;DHT22;7653;48.994;9.212;2023-06-22T06:52:40;24.60;44.70
15105;DHT22;7653;48.994;9.212;2023-06-22T06:55:07;24.80;44.90
15105;DHT22;7653;48.994;9.212;2023-06-22T06:57:33;24.80;44.00
15105;DHT22;7653;48.994;9.212;2023-06-22T06:59:59;24.90;44.00
15105;DHT22;7653;48.994;9.212;2023-06-22T07:02:26;24.90;43.90
15105;DHT22;7653;48.994;9.212;2023-06-22T07:04:53;25.10;43.30
15105;DHT22;7653;48.994;9.212;2023-06-22T07:07:21;25.10;40.90
15105;DHT22;7653;48.994;9.212;2023-06-22T07:09:46;25.20;42.90
15105;DHT22;7653;48.994;9.212;2023-06-22T07:12:12;25.40;43.40
15105;DHT22;7653;48.994;9.212;2023-06-22T07:14:38;25.50;41.40
15105;DHT22;7653;48.994;9.212;2023-06-22T07:17:03;25.40;40.00
15105;DHT22;7653;48.994;9.212;2023-06-22T07:19:29;25.60;39.20
15105;DHT22;7653;48.994;9.212;2023-06-22T07:21:56;25.60;41.00
15105;DHT22;7653;48.994;9.212;2023-06-22T07:24:22;25.60;39.30
15105;DHT22;7653;48.994;9.212;2023-06-22T07:26:48;25.50;40.40
15105;DHT22;7653;48.994;9.212;2023-06-22T07:29:19;25.70;36.80
15105;DHT22;7653;48.994;9.212;2023-06-22T07:31:50;25.70;38.80
15105;DHT22;7653;48.994;9.212;2023-06-22T07:34:17;25.80;40.20
15105;DHT22;7653;48.994;9.212;2023-06-22T07:36:43;25.80;38.70
15105;DHT22;7653;48.994;9.212;2023-06-22T07:39:09;25.90;37.80
15105;DHT22;7653;48.994;9.212;2023-06-22T07:41:34;25.90;36.10
15105;DHT22;7653;48.994;9.212;2023-06-22T07:44:02;26.00;36.70
15105;DHT22;7653;48.994;9.212;2023-06-22T07:46:28;26.30;36.30
15105;DHT22;7653;48.994;9.212;2023-06-22T07:48:56;26.30;35.00
15105;DHT22;7653;48.994;9.212;2023-06-22T07:51:21;26.40;34.70
15105;DHT22;7653;48.994;9.212;2023-06-22T07:53:47;26.40;34.70
15105;DHT22;7653;48.994;9.212;2023-06-22T07:56:13;26.50;34.70
15105;DHT22;7653;48.994;9.212;2023-06-22T07:58:44;26.60;33.10
15105;DHT22;7653;48.994;9.212;2023-06-22T08:01:10;26.60;33.60
15105;DHT22;7653;48.994;9.212;2023-06-22T08:03:36;26.50;33.70
15105;DHT22;7653;48.994;9.212;2023-06-22T08:06:02;26.60;34.70
15105;DHT22;7653;48.994;9.212;2023-06-22T08:08:27;26.60;31.90
15105;DHT22;7653;48.994;9.212;2023-06-22T08:10:53;26.90;32.90
15105;DHT22;7653;48.994;9.212;2023-06-22T08:13:18;27.00;31.90
15105;DHT22;7653;48.994;9.212;2023-06-22T08:15:44;27.00;30.60
15105;DHT22;7653;48.994;9.212;2023-06-22T08:18:10;27.20;31.90
15105;DHT22;7653;48.994;9.212;2023-06-22T08:20:36;27.20;31.30
15105;DHT22;7653;48.994;9.212;2023-06-22T08:23:01;27.20;30.20
15105;DHT22;7653;48.994;9.212;2023-06-22T08:25:32;27.30;29.70
15105;DHT22;7653;48.994;9.212;2023-06-22T08:27:58;27.40;29.80
15105;DHT22;7653;48.994;9.212;2023-06-22T08:30:24;27.60;30.10
15105;DHT22;7653;48.994;9.212;2023-06-22T08:32:49;27.90;29.10
15105;DHT22;7653;48.994;9.212;2023-06-22T08:35:15;27.90;29.00
15105;DHT22;7653;48.994;9.212;2023-06-22T08:37:41;27.80;29.70
15105;DHT22;7653;48.994;9.212;2023-06-22T08:40:08;28.10;29.00
15105;DHT22;7653;48.994;9.212;2023-06-22T08:42:35;28.10;29.20
15105;DHT22;7653;48.994;9.212;2023-06-22T08:45:01;27.90;28.70
15105;DHT22;7653;48.994;9.212;2023-06-22T08:47:28;27.90;29.30
15105;DHT22;7653;48.994;9.212;2023-06-22T08:49:53;28.10;27.80
15105;DHT22;7653;48.994;9.212;2023-06-22T08:52:20;28.30;29.00
15105;DHT22;7653;48.994;9.212;2023-06-22T08:54:46;28.30;27.80
15105;DHT22;7653;48.994;9.212;2023-06-22T08:57:12;28.30;27.50
15105;DHT22;7653;48.994;9.212;2023-06-22T08:59:37;28.20;27.70
15105;DHT22;7653;48.994;9.212;2023-06-22T09:02:03;28.10;28.20
15105;DHT22;7653;48.994;9.212;2023-06-22T09:04:29;27.80;28.10
15105;DHT22;7653;48.994;9.212;2023-06-22T09:06:55;27.90;28.40
15105;DHT22;7653;48.994;9.212;2023-06-22T09:09:21;27.70;29.80
15105;DHT22;7653;48.994;9.212;2023-06-22T09:11:47;28.00;27.10
15105;DHT22;7653;48.994;9.212;2023-06-22T09:14:13;28.20;26.90
15105;DHT22;7653;48.994;9.212;2023-06-22T09:16:38;27.90;27.00
15105;DHT22;7653;48.994;9.212;2023-06-22T09:19:04;27.60;28.20
15105;DHT22;7653;48.994;9.212;2023-06-22T09:21:31;27.50;28.30
15105;DHT22;7653;48.994;9.212;2023-06-22T09:23:57;27.90;26.30
15105;DHT22;7653;48.994;9.212;2023-06-22T09:26:23;27.70;27.40
15105;DHT22;7653;48.994;9.212;2023-06-22T09:28:49;28.10;25.80
15105;DHT22;7653;48.994;9.212;2023-06-22T09:31:15;28.30;26.80
15105;DHT22;7653;48.994;9.212;2023-06-22T09:33:42;28.50;26.50
15105;DHT22;7653;48.994;9.212;2023-06-22T09:36:08;28.20;26.00
15105;DHT22;7653;48.994;9.212;2023-06-22T09:38:38;27.60;26.70
15105;DHT22;7653;48.994;9.212;2023-06-22T09:41:04;27.40;28.30
15105;DHT22;7653;48.994;9.212;2023-06-22T09:43:34;27.80;26.60
15105;DHT22;7653;48.994;9.212;2023-06-22T09:46:01;27.80;27.20
15105;DHT22;7653;48.994;9.212;2023-06-22T09:48:27;28.10;27.60
15105;DHT22;7653;48.994;9.212;2023-06-22T09:51:05;28.60;29.30
15105;DHT22;7653;48.994;9.212;2023-06-22T09:53:33;29.00;27.10
15105;DHT22;7653;48.994;9.212;2023-06-22T09:56:01;29.00;24.60
15105;DHT22;7653;48.994;9.212;2023-06-22T09:58:35;29.00;25.70
15105;DHT22;7653;48.994;9.212;2023-06-22T10:01:41;29.30;24.60
15105;DHT22;7653;48.994;9.212;2023-06-22T10:04:08;29.20;26.80
15105;DHT22;7653;48.994;9.212;2023-06-22T10:06:35;29.30;25.40
15105;DHT22;7653;48.994;9.212;2023-06-22T10:09:08;29.60;25.30
15105;DHT22;7653;48.994;9.212;2023-06-22T10:11:42;30.00;24.00
15105;DHT22;7653;48.994;9.212;2023-06-22T10:14:18;30.10;23.10
15105;DHT22;7653;48.994;9.212;2023-06-22T10:16:56;30.50;23.30
15105;DHT22;7653;48.994;9.212;2023-06-22T10:19:38;30.60;22.30
15105;DHT22;7653;48.994;9.212;2023-06-22T10:22:14;30.80;21.80
15105;DHT22;7653;48.994;9.212;2023-06-22T10:24:41;30.40;21.70
15105;DHT22;7653;48.994;9.212;2023-06-22T10:27:17;30.40;23.30
15105;DHT22;7653;48.994;9.212;2023-06-22T10:30:22;30.40;21.70
15105;DHT22;7653;48.994;9.212;2023-06-22T10:32:59;30.40;23.20
15105;DHT22;7653;48.994;9.212;2023-06-22T10:35:28;30.30;21.50
15105;DHT22;7653;48.994;9.212;2023-06-22T10:38:07;30.70;21.30
15105;DHT22;7653;48.994;9.212;2023-06-22T12:09:17;31.60;19.00
15105;DHT22;7653;48.994;9.212;2023-06-22T12:19:18;31.30;16.70
15105;DHT22;7653;48.994;9.212;2023-06-22T12:25:23;31.10;16.80
15105;DHT22;7653;48.994;9.212;2023-06-22T13:00:48;30.50;21.20
15105;DHT22;7653;48.994;9.212;2023-06-22T15:28:40;36.20;1.00
15105;DHT22;7653;48.994;9.212;2023-06-22T15:31:06;36.20;1.00
15105;DHT22;7653;48.994;9.212;2023-06-22T15:33:40;36.20;1.00
15105;DHT22;7653;48.994;9.212;2023-06-22T15:36:34;35.70;1.00
15105;DHT22;7653;48.994;9.212;2023-06-22T15:42:32;36.50;1.00
15105;DHT22;7653;48.994;9.212;2023-06-22T15:45:07;36.20;1.00
15105;DHT22;7653;48.994;9.212;2023-06-22T15:48:02;35.40;1.00
15105;DHT22;7653;48.994;9.212;2023-06-22T15:53:46;35.90;1.00
15105;DHT22;7653;48.994;9.212;2023-06-22T16:17:10;33.50;3.40
15105;DHT22;7653;48.994;9.212;2023-06-22T16:20:02;32.90;4.20
15105;DHT22;7653;48.994;9.212;2023-06-22T16:22:35;33.10;4.30
15105;DHT22;7653;48.994;9.212;2023-06-22T16:25:07;32.90;5.50
15105;DHT22;7653;48.994;9.212;2023-06-22T16:27:33;33.20;5.40
15105;DHT22;7653;48.994;9.212;2023-06-22T17:00:10;32.70;1.00
15105;DHT22;7653;48.994;9.212;2023-06-22T17:02:56;33.50;1.00
15105;DHT22;7653;48.994;9.212;2023-06-22T17:05:26;33.80;1.00
15105;DHT22;7653;48.994;9.212;2023-06-22T17:07:58;33.40;1.00
15105;DHT22;7653;48.994;9.212;2023-06-22T17:10:26;32.90;1.00
15105;DHT22;7653;48.994;9.212;2023-06-22T17:12:52;32.70;1.00
15105;DHT22;7653;48.994;9.212;2023-06-22T17:15:21;32.40;1.00
15105;DHT22;7653;48.994;9.212;2023-06-22T17:17:47;32.10;2.10
15105;DHT22;7653;48.994;9.212;2023-06-22T17:20:13;31.90;1.10
15105;DHT22;7653;48.994;9.212;2023-06-22T17:22:45;31.70;1.70
15105;DHT22;7653;48.994;9.212;2023-06-22T17:25:12;31.30;2.50
15105;DHT22;7653;48.994;9.212;2023-06-22T17:27:39;31.30;2.80
15105;DHT22;7653;48.994;9.212;2023-06-22T17:30:17;31.20;1.80
15105;DHT22;7653;48.994;9.212;2023-06-22T17:32:46;31.10;2.40
15105;DHT22;7653;48.994;9.212;2023-06-22T17:35:13;31.00;2.80
15105;DHT22;7653;48.994;9.212;2023-06-22T17:37:48;30.90;3.90
15105;DHT22;7653;48.994;9.212;2023-06-22T17:40:19;30.40;4.80
15105;DHT22;7653;48.994;9.212;2023-06-22T17:42:45;30.20;5.50
15105;DHT22;7653;48.994;9.212;2023-06-22T17:45:22;30.00;6.30
15105;DHT22;7653;48.994;9.212;2023-06-22T17:47:52;29.90;6.10
15105;DHT22;7653;48.994;9.212;2023-06-22T17:50:22;29.80;5.90
15105;DHT22;7653;48.994;9.212;2023-06-22T17:52:55;29.70;6.80
15105;DHT22;7653;48.994;9.212;2023-06-22T17:55:22;29.60;6.80
15105;DHT22;7653;48.994;9.212;2023-06-22T17:57:54;29.50;7.20
15105;DHT22;7653;48.994;9.212;2023-06-22T18:00:20;29.30;7.60
15105;DHT22;7653;48.994;9.212;2023-06-22T18:02:46;29.10;8.60
15105;DHT22;7653;48.994;9.212;2023-06-22T18:05:14;29.20;7.70
15105;DHT22;7653;48.994;9.212;2023-06-22T18:07:40;29.30;8.50
15105;DHT22;7653;48.994;9.212;2023-06-22T18:10:07;29.10;8.50
15105;DHT22;7653;48.994;9.212;2023-06-22T18:12:35;28.80;9.30
15105;DHT22;7653;48.994;9.212;2023-06-22T18:15:02;28.70;9.30
15105;DHT22;7653;48.994;9.212;2023-06-22T18:17:28;28.70;9.20
15105;DHT22;7653;48.994;9.212;2023-06-22T18:19:58;28.60;9.70
15105;DHT22;7653;48.994;9.212;2023-06-22T18:22:26;28.60;10.20
15105;DHT22;7653;48.994;9.212;2023-06-22T18:24:59;28.50;10.90
15105;DHT22;7653;48.994;9.212;2023-06-22T18:27:26;28.60;12.00
15105;DHT22;7653;48.994;9.212;2023-06-22T18:29:55;28.60;11.90
15105;DHT22;7653;48.994;9.212;2023-06-22T18:32:20;28.40;11.80
15105;DHT22;7653;48.994;9.212;2023-06-22T18:34:46;28.30;12.30
15105;DHT22;7653;48.994;9.212;2023-06-22T18:37:13;28.30;12.60
15105;DHT22;7653;48.994;9.212;2023-06-22T18:39:43;28.20;12.20
15105;DHT22;7653;48.994;9.212;2023-06-22T18:42:09;28.10;13.30
15105;DHT22;7653;48.994;9.212;2023-06-22T18:44:35;27.90;13.30
15105;DHT22;7653;48.994;9.212;2023-06-22T18:47:06;27.90;13.50
15105;DHT22;7653;48.994;9.212;2023-06-22T18:50:03;27.90;14.50
15105;DHT22;7653;48.994;9.212;2023-06-22T18:52:24;27.80;14.80
15105;DHT22;7653;48.994;9.212;2023-06-22T18:54:53;27.60;15.30
15105;DHT22;7653;48.994;9.212;2023-06-22T18:57:32;27.50;16.30
15105;DHT22;7653;48.994;9.212;2023-06-22T19:00:02;27.40;16.20
15105;DHT22;7653;48.994;9.212;2023-06-22T19:05:18;27.10;17.20
15105;DHT22;7653;48.994;9.212;2023-06-22T19:08:01;27.10;17.60
15105;DHT22;7653;48.994;9.212;2023-06-22T19:13:18;26.90;17.80
15105;DHT22;7653;48.994;9.212;2023-06-22T19:15:46;26.80;18.80
15105;DHT22;7653;48.994;9.212;2023-06-22T19:20:39;26.50;18.80
15105;DHT22;7653;48.994;9.212;2023-06-22T19:23:05;26.40;17.80
15105;DHT22;7653;48.994;9.212;2023-06-22T19:25:31;26.40;18.10
15105;DHT22;7653;48.994;9.212;2023-06-22T19:28:00;26.30;19.30
15105;DHT22;7653;48.994;9.212;2023-06-22T19:30:27;26.20;20.00
15105;DHT22;7653;48.994;9.212;2023-06-22T19:32:55;26.20;20.00
15105;DHT22;7653;48.994;9.212;2023-06-22T19:35:21;26.10;21.00
15105;DHT22;7653;48.994;9.212;2023-06-22T19:37:47;25.90;21.20
15105;DHT22;7653;48.994;9.212;2023-06-22T19:40:14;25.80;21.40
15105;DHT22;7653;48.994;9.212;2023-06-22T19:42:41;25.80;20.80
15105;DHT22;7653;48.994;9.212;2023-06-22T19:45:08;25.70;21.40
15105;DHT22;7653;48.994;9.212;2023-06-22T19:47:36;25.90;20.90
15105;DHT22;7653;48.994;9.212;2023-06-22T19:50:03;25.90;20.90
15105;DHT22;7653;48.994;9.212;2023-06-22T19:52:34;26.00;21.00
15105;DHT22;7653;48.994;9.212;2023-06-22T19:55:00;25.90;21.90
15105;DHT22;7653;48.994;9.212;2023-06-22T19:57:25;25.80;22.50
15105;DHT22;7653;48.994;9.212;2023-06-22T19:59:52;25.60;24.00
15105;DHT22;7653;48.994;9.212;2023-06-22T20:02:18;25.40;24.80
15105;DHT22;7653;48.994;9.212;2023-06-22T20:04:43;25.30;24.30
15105;DHT22;7653;48.994;9.212;2023-06-22T20:07:09;25.20;24.70
15105;DHT22;7653;48.994;9.212;2023-06-22T20:09:35;25.00;25.40
15105;DHT22;7653;48.994;9.212;2023-06-22T20:12:03;24.80;25.30
15105;DHT22;7653;48.994;9.212;2023-06-22T20:14:35;24.80;25.80
15105;DHT22;7653;48.994;9.212;2023-06-22T20:17:01;24.80;26.10
15105;DHT22;7653;48.994;9.212;2023-06-22T20:19:36;24.80;26.20
15105;DHT22;7653;48.994;9.212;2023-06-22T20:22:05;24.70;25.60
15105;DHT22;7653;48.994;9.212;2023-06-22T20:24:31;24.70;25.80
15105;DHT22;7653;48.994;9.212;2023-06-22T20:26:58;24.70;26.20
15105;DHT22;7653;48.994;9.212;2023-06-22T20:52:52;23.30;44.80
15105;DHT22;7653;48.994;9.212;2023-06-22T20:55:18;22.60;51.70
15105;DHT22;7653;48.994;9.212;2023-06-22T20:57:44;22.30;56.20
15105;DHT22;7653;48.994;9.212;2023-06-22T21:00:10;22.10;58.20
15105;DHT22;7653;48.994;9.212;2023-06-22T21:02:36;22.00;58.50
15105;DHT22;7653;48.994;9.212;2023-06-22T21:05:02;22.00;60.10
15105;DHT22;7653;48.994;9.212;2023-06-22T21:07:28;21.80;62.40
15105;DHT22;7653;48.994;9.212;2023-06-22T21:09:56;21.70;62.10
15105;DHT22;7653;48.994;9.212;2023-06-22T21:12:22;21.80;61.10
15105;DHT22;7653;48.994;9.212;2023-06-22T21:14:48;21.80;61.00
15105;DHT22;7653;48.994;9.212;2023-06-22T21:17:16;21.70;61.00
15105;DHT22;7653;48.994;9.212;2023-06-22T21:19:42;21.70;59.50
15105;DHT22;7653;48.994;9.212;2023-06-22T21:22:08;21.50;60.80
15105;DHT22;7653;48.994;9.212;2023-06-22T21:24:34;21.50;60.80
15105;DHT22;7653;48.994;9.212;2023-06-22T21:27:00;21.50;60.80
15105;DHT22;7653;48.994;9.212;2023-06-22T21:29:25;21.50;60.80
15105;DHT22;7653;48.994;9.212;2023-06-22T21:31:51;21.50;60.70
15105;DHT22;7653;48.994;9.212;2023-06-22T21:34:17;21.60;58.90
15105;DHT22;7653;48.994;9.212;2023-06-22T21:36:42;21.60;58.50
15105;DHT22;7653;48.994;9.212;2023-06-22T21:39:08;21.50;59.40
15105;DHT22;7653;48.994;9.212;2023-06-22T21:41:34;21.50;58.00
15105;DHT22;7653;48.994;9.212;2023-06-22T21:43:59;21.50;58.90
15105;DHT22;7653;48.994;9.212;2023-06-22T21:46:25;21.50;60.10
15105;DHT22;7653;48.994;9.212;2023-06-22T21:48:50;21.50;59.50
15105;DHT22;7653;48.994;9.212;2023-06-22T21:51:16;21.50;59.70
15105;DHT22;7653;48.994;9.212;2023-06-22T21:53:42;21.50;60.60
15105;DHT22;7653;48.994;9.212;2023-06-22T21:56:07;21.50;59.80
15105;DHT22;7653;48.994;9.212;2023-06-22T21:58:33;21.50;60.80
15105;DHT22;7653;48.994;9.212;2023-06-22T22:00:58;21.30;61.30
15105;DHT22;7653;48.994;9.212;2023-06-22T22:03:24;21.20;62.00
15105;DHT22;7653;48.994;9.212;2023-06-22T22:05:53;21.20;64.20